Time;durP1;ratioP1;P1;durP2;ratioP2;P2;SDS_P1;SDS_P2;PMS_P1;PMS_P2;Temp;Humidity;BMP_temperature;BMP_pressure;BME280_temperature;BME280_humidity;BME280_pressure;Samples;Min_cycle;Max_cycle;Signal;HPM_P1;HPM_P2
2023/06/10 00:00:41;;;;;;;;;9.00;9.00;;;;;29.01;33.70;100810.41;5077528;27;46495;-70
2023/06/10 00:03:07;;;;;;;;;9.50;9.50;;;;;29.04;34.02;100820.66;5075820;27;45473;-70
2023/06/10 00:05:34;;;;;;;;;10.75;10.75;;;;;29.06;33.46;100821.25;5077999;27;45260;-70
2023/06/10 00:08:01;;;;;;;;;10.33;9.33;;;;;29.04;33.50;100816.09;5075325;27;45260;-71
2023/06/10 00:10:26;;;;;;;;;8.00;8.00;;;;;29.05;33.78;100819.59;5077491;27;45432;-70
2023/06/10 00:12:52;;;;;;;;;8.00;8.00;;;;;29.09;33.27;100820.81;5077193;27;45467;-70
2023/06/10 00:15:17;;;;;;;;;11.75;10.50;;;;;29.06;33.70;100814.03;5077340;27;45581;-70
2023/06/10 00:17:43;;;;;;;;;14.50;10.50;;;;;29.05;33.92;100811.56;5076064;28;45311;-70
2023/06/10 00:20:11;;;;;;;;;10.00;9.25;;;;;29.13;34.00;100815.81;5093332;27;46879;-71
2023/06/10 00:22:37;;;;;;;;;8.67;8.67;;;;;29.09;33.46;100810.09;5077184;27;45662;-70
2023/06/10 00:25:05;;;;;;;;;11.00;11.00;;;;;29.06;33.98;100795.28;5077343;27;45351;-70
2023/06/10 00:27:34;;;;;;;;;12.00;10.00;;;;;29.07;33.38;100807.59;5077351;27;45402;-70
2023/06/10 00:30:06;;;;;;;;;10.33;9.33;;;;;29.09;33.52;100801.22;5077549;28;47483;-70
2023/06/10 00:32:31;;;;;;;;;10.75;10.00;;;;;29.12;33.41;100804.28;5076628;28;45514;-70
2023/06/10 00:34:57;;;;;;;;;9.33;9.00;;;;;29.12;33.53;100801.59;5077236;27;45474;-71
2023/06/10 00:37:22;;;;;;;;;5.67;5.67;;;;;29.09;33.83;100802.06;5092782;27;45682;-70
2023/06/10 00:39:48;;;;;;;;;11.75;10.75;;;;;29.13;34.12;100803.22;5069451;27;46468;-70
2023/06/10 00:42:13;;;;;;;;;10.75;9.75;;;;;29.14;33.79;100799.53;5076790;28;45552;-70
2023/06/10 00:44:38;;;;;;;;;8.33;8.00;;;;;29.11;33.45;100796.47;5086550;27;45366;-70
2023/06/10 00:47:05;;;;;;;;;10.33;9.33;;;;;29.13;33.39;100802.41;5076570;28;45518;-71
2023/06/10 00:49:31;;;;;;;;;10.75;10.75;;;;;29.11;33.96;100804.50;5076707;27;45741;-71
2023/06/10 00:51:58;;;;;;;;;8.00;8.00;;;;;29.10;33.67;100806.38;5076899;27;45316;-70
2023/06/10 00:54:23;;;;;;;;;12.00;9.33;;;;;29.12;33.64;100798.13;5076979;27;45392;-71
2023/06/10 00:56:49;;;;;;;;;7.00;6.25;;;;;29.10;33.82;100795.66;5075665;27;45473;-70
2023/06/10 00:59:15;;;;;;;;;13.00;11.00;;;;;29.11;33.59;100788.44;5076724;27;45517;-71
2023/06/10 01:01:43;;;;;;;;;10.25;9.75;;;;;29.11;33.46;100797.28;5092457;27;45646;-70
2023/06/10 01:04:11;;;;;;;;;9.00;9.00;;;;;29.14;33.50;100807.56;5076791;28;45323;-71
2023/06/10 01:06:47;;;;;;;;;11.50;9.50;;;;;29.16;33.81;100808.13;5076945;28;45348;-70
2023/06/10 01:09:24;;;;;;;;;9.33;9.33;;;;;29.14;33.36;100806.72;5072044;27;46429;-70
2023/06/10 01:11:58;;;;;;;;;15.67;11.33;;;;;29.10;33.96;100802.88;5076313;28;45244;-71
2023/06/10 01:14:25;;;;;;;;;9.75;8.75;;;;;29.10;33.66;100801.00;5071910;27;45331;-70
2023/06/10 01:16:52;;;;;;;;;8.50;8.50;;;;;29.09;33.59;100794.03;5067906;27;45265;-71
2023/06/10 01:19:17;;;;;;;;;10.00;9.00;;;;;29.13;33.75;100805.09;5076027;27;46241;-70
2023/06/10 01:21:48;;;;;;;;;9.25;9.25;;;;;29.13;33.54;100807.78;5076145;28;45390;-70
2023/06/10 01:24:14;;;;;;;;;11.33;10.33;;;;;29.11;33.87;100808.00;5076688;27;45416;-70
2023/06/10 01:26:42;;;;;;;;;10.25;9.25;;;;;29.14;34.16;100807.56;5076642;27;45395;-70
2023/06/10 01:29:14;;;;;;;;;11.00;11.00;;;;;29.14;33.89;100810.22;5075801;27;45441;-70
2023/06/10 01:31:56;;;;;;;;;14.00;11.50;;;;;29.08;33.78;100787.00;5091790;27;46233;-71
2023/06/10 01:34:24;;;;;;;;;9.25;8.25;;;;;29.16;33.78;100808.13;5091770;27;45348;-70
2023/06/10 01:36:50;;;;;;;;;9.25;9.00;;;;;29.13;33.70;100802.41;5076260;28;45291;-71
2023/06/10 01:39:18;;;;;;;;;11.00;11.00;;;;;29.14;33.92;100809.41;5067414;27;46312;-70
2023/06/10 01:41:44;;;;;;;;;10.50;10.50;;;;;29.11;33.76;100791.94;5071195;27;45369;-70
2023/06/10 01:44:10;;;;;;;;;11.00;11.00;;;;;29.16;33.86;100816.16;5075852;28;45450;-69
2023/06/10 01:46:36;;;;;;;;;11.00;10.25;;;;;29.09;33.86;100798.53;5076087;27;45326;-70
2023/06/10 01:49:01;;;;;;;;;9.33;9.33;;;;;29.16;33.93;100808.13;5075822;27;46535;-70
2023/06/10 01:51:26;;;;;;;;;12.25;10.25;;;;;29.07;34.10;100804.94;5075879;28;45624;-70
2023/06/10 01:53:52;;;;;;;;;9.75;9.75;;;;;29.11;33.77;100801.84;5083446;27;45359;-70
2023/06/10 01:56:19;;;;;;;;;11.50;10.50;;;;;29.11;34.03;100805.34;5076137;28;45483;-70
2023/06/10 01:58:45;;;;;;;;;11.00;10.00;;;;;29.11;33.75;100807.19;5075443;28;45756;-70
2023/06/10 02:01:10;;;;;;;;;9.00;9.00;;;;;29.07;34.40;100804.09;5075243;27;45461;-71
2023/06/10 02:03:36;;;;;;;;;8.00;8.00;;;;;29.12;33.93;100798.91;5076226;28;45409;-70
2023/06/10 02:06:01;;;;;;;;;11.75;10.00;;;;;29.10;34.03;100808.22;5075922;28;45412;-70
2023/06/10 02:08:27;;;;;;;;;10.25;8.50;;;;;29.11;34.08;100807.19;5075692;28;47306;-70
2023/06/10 02:10:53;;;;;;;;;8.25;8.25;;;;;29.11;34.04;100802.66;5077038;27;45390;-70
2023/06/10 02:13:18;;;;;;;;;10.00;8.33;;;;;29.06;33.83;100791.78;5090906;27;45423;-70
2023/06/10 02:15:44;;;;;;;;;9.75;9.25;;;;;29.06;34.33;100794.47;5075209;28;45472;-70
2023/06/10 02:18:11;;;;;;;;;9.00;9.00;;;;;29.15;34.26;100808.34;5076024;28;45407;-71
2023/06/10 02:20:37;;;;;;;;;9.67;9.67;;;;;29.11;34.16;100799.97;5075639;27;45229;-70
2023/06/10 02:23:03;;;;;;;;;9.33;8.33;;;;;29.13;34.08;100805.91;5075713;27;45347;-70
2023/06/10 02:25:28;;;;;;;;;11.75;9.75;;;;;29.14;33.94;100807.56;5073670;28;45567;-70
2023/06/10 02:27:53;;;;;;;;;10.00;10.00;;;;;29.16;34.04;100815.34;5075247;27;45436;-70
2023/06/10 02:30:19;;;;;;;;;9.00;9.00;;;;;29.13;34.09;100810.44;5077404;27;45416;-70
2023/06/10 02:32:47;;;;;;;;;12.50;9.25;;;;;29.11;34.09;100791.94;5075911;28;45361;-70
2023/06/10 02:35:14;;;;;;;;;13.75;9.25;;;;;29.15;34.23;100811.84;5075439;27;45502;-71
2023/06/10 02:37:39;;;;;;;;;9.00;8.75;;;;;29.08;33.90;100792.38;5075371;28;46534;-70
2023/06/10 02:40:06;;;;;;;;;13.25;9.75;;;;;29.13;34.31;100799.72;5061037;27;45985;-70
2023/06/10 02:42:31;;;;;;;;;10.50;10.00;;;;;29.12;34.00;100800.78;5075065;28;45351;-70
2023/06/10 02:44:56;;;;;;;;;11.00;11.00;;;;;29.16;34.08;100812.66;5090996;27;45616;-70
2023/06/10 02:47:22;;;;;;;;;9.00;9.00;;;;;29.10;34.30;100800.19;5073807;27;46833;-70
2023/06/10 02:49:47;;;;;;;;;9.25;9.25;;;;;29.00;34.40;100792.69;5090519;27;45432;-70
2023/06/10 02:52:12;;;;;;;;;10.00;8.33;;;;;29.10;34.46;100811.72;5073280;28;45512;-70
2023/06/10 02:54:38;;;;;;;;;9.00;9.00;;;;;29.15;34.32;100822.56;5075332;28;45283;-70
2023/06/10 02:57:03;;;;;;;;;10.33;9.67;;;;;29.15;34.07;100821.75;5074368;27;46469;-71
2023/06/10 02:59:28;;;;;;;;;7.50;7.50;;;;;29.15;33.90;100827.91;5075117;28;45413;-70
2023/06/10 03:01:54;;;;;;;;;11.33;8.00;;;;;29.11;34.23;100818.72;5075142;28;45426;-71
2023/06/10 03:04:20;;;;;;;;;9.33;9.33;;;;;29.11;34.46;100823.25;5075038;27;45275;-70
2023/06/10 03:06:46;;;;;;;;;8.00;8.00;;;;;29.13;34.13;100837.22;5075278;27;46584;-70
2023/06/10 03:09:13;;;;;;;;;10.75;9.75;;;;;29.08;34.35;100832.53;5074995;27;45470;-70
2023/06/10 03:11:38;;;;;;;;;9.00;9.00;;;;;29.06;34.06;100823.91;5074453;27;45398;-70
2023/06/10 03:14:04;;;;;;;;;9.00;9.00;;;;;29.11;34.48;100828.63;5074499;27;45550;-70
2023/06/10 03:16:31;;;;;;;;;9.00;8.00;;;;;28.96;34.84;100808.41;5074622;28;46168;-70
2023/06/10 03:18:56;;;;;;;;;6.00;6.00;;;;;29.11;34.31;100837.47;5074827;27;45386;-70
2023/06/10 03:21:22;;;;;;;;;11.67;8.33;;;;;29.13;34.49;100843.41;5074874;27;45474;-70
2023/06/10 03:23:47;;;;;;;;;9.00;9.00;;;;;29.08;34.53;100829.84;5061878;28;45589;-70
2023/06/10 03:26:14;;;;;;;;;9.67;9.67;;;;;29.11;34.37;100847.38;5073106;28;47457;-71
2023/06/10 03:28:39;;;;;;;;;10.00;8.00;;;;;29.15;34.35;100848.53;5074602;27;45555;-70
2023/06/10 03:31:05;;;;;;;;;12.00;10.67;;;;;29.05;34.59;100833.00;5073665;28;45339;-70
2023/06/10 03:33:31;;;;;;;;;10.00;9.00;;;;;29.13;34.35;100854.13;5074580;28;45531;-70
2023/06/10 03:35:56;;;;;;;;;8.00;8.00;;;;;29.13;34.38;100848.78;5074564;27;46367;-70
2023/06/10 03:38:21;;;;;;;;;9.67;9.67;;;;;29.11;34.55;100842.84;5073022;28;45401;-70
2023/06/10 03:40:47;;;;;;;;;9.00;9.00;;;;;29.10;34.55;100846.53;5062310;28;45349;-70
2023/06/10 03:43:12;;;;;;;;;10.00;10.00;;;;;29.11;34.35;100842.84;5074518;27;45417;-70
2023/06/10 03:45:38;;;;;;;;;10.67;9.67;;;;;29.07;34.33;100838.94;5074534;28;45454;-70
2023/06/10 03:48:04;;;;;;;;;9.33;8.00;;;;;29.03;34.26;100837.75;5074370;27;45332;-71
2023/06/10 03:50:29;;;;;;;;;8.33;8.33;;;;;29.15;34.36;100856.56;5074605;27;45381;-70
2023/06/10 03:52:55;;;;;;;;;9.67;8.00;;;;;29.12;34.36;100846.34;5075143;27;45448;-71
2023/06/10 03:55:21;;;;;;;;;10.00;8.00;;;;;29.14;34.41;100849.59;5092603;27;47263;-70
2023/06/10 03:57:48;;;;;;;;;10.00;10.00;;;;;29.03;34.46;100832.41;5077470;27;45307;-71
2023/06/10 04:00:15;;;;;;;;;10.33;9.00;;;;;29.14;34.33;100846.91;5077691;27;45429;-70
2023/06/10 04:02:47;;;;;;;;;10.33;8.33;;;;;29.05;34.68;100835.66;5077743;27;45526;-71
2023/06/10 04:05:12;;;;;;;;;9.67;9.67;;;;;29.10;34.46;100840.38;5077572;28;46463;-70
2023/06/10 04:07:40;;;;;;;;;7.67;6.67;;;;;29.10;34.25;100841.19;5076109;28;45422;-70
2023/06/10 04:10:06;;;;;;;;;7.67;7.33;;;;;29.12;34.67;100847.13;5077295;27;45469;-70
2023/06/10 04:12:32;;;;;;;;;9.00;9.00;;;;;29.13;34.10;100850.63;5077440;28;45467;-70
2023/06/10 04:14:57;;;;;;;;;8.00;7.67;;;;;29.10;34.80;100845.72;5077020;27;46482;-70
2023/06/10 04:17:22;;;;;;;;;8.00;8.00;;;;;29.13;34.47;100848.78;5077534;27;45322;-70
2023/06/10 04:19:48;;;;;;;;;8.33;8.33;;;;;29.12;34.28;100847.13;5077661;27;45335;-70
2023/06/10 04:22:13;;;;;;;;;10.50;10.50;;;;;29.05;34.82;100839.16;5077330;28;45558;-70
2023/06/10 04:24:38;;;;;;;;;8.75;8.75;;;;;29.08;34.42;100845.94;5076699;28;47246;-70
2023/06/10 04:27:05;;;;;;;;;8.33;8.33;;;;;29.12;34.55;100854.38;5076846;27;45362;-71
2023/06/10 04:29:30;;;;;;;;;9.00;9.00;;;;;29.12;34.72;100855.16;5077699;27;45390;-70
2023/06/10 04:31:56;;;;;;;;;9.00;9.00;;;;;29.07;34.73;100844.28;5076899;28;45363;-70
2023/06/10 04:34:21;;;;;;;;;12.25;10.25;;;;;29.07;34.52;100847.78;5077625;27;46491;-70
2023/06/10 04:36:46;;;;;;;;;8.00;7.00;;;;;29.06;34.92;100845.34;5077137;27;45278;-70
2023/06/10 04:39:12;;;;;;;;;8.33;8.33;;;;;29.01;34.50;100838.00;5068768;28;45379;-71
2023/06/10 04:41:37;;;;;;;;;10.33;9.00;;;;;29.05;34.75;100846.38;5072213;27;45409;-70
2023/06/10 04:44:02;;;;;;;;;10.00;10.00;;;;;29.12;34.67;100855.16;5092901;27;49649;-70
2023/06/10 04:46:30;;;;;;;;;10.33;8.00;;;;;29.11;34.96;100847.38;5076723;28;45446;-70
2023/06/10 04:48:55;;;;;;;;;10.00;10.00;;;;;29.08;35.04;100851.28;5077153;27;45459;-70
2023/06/10 04:51:21;;;;;;;;;7.00;7.00;;;;;29.14;34.41;100858.44;5076677;27;45289;-70
2023/06/10 04:53:46;;;;;;;;;10.00;9.67;;;;;29.11;34.68;100852.72;5077185;27;46384;-70
2023/06/10 04:56:12;;;;;;;;;9.33;8.00;;;;;29.11;34.43;100864.25;5076661;27;45467;-70
2023/06/10 04:58:37;;;;;;;;;7.33;7.33;;;;;29.11;34.88;100858.91;5077009;27;45649;-70
2023/06/10 05:01:02;;;;;;;;;11.00;10.00;;;;;29.07;34.97;100861.19;5077010;27;45391;-71
2023/06/10 05:03:28;;;;;;;;;7.67;7.67;;;;;28.98;34.74;100843.00;5076290;27;46948;-70
2023/06/10 05:05:53;;;;;;;;;12.00;9.67;;;;;29.07;34.81;100861.19;5076259;27;45395;-71
2023/06/10 05:08:18;;;;;;;;;8.00;8.00;;;;;29.07;34.85;100863.03;5092416;27;45504;-70
2023/06/10 05:10:44;;;;;;;;;9.33;8.33;;;;;29.11;34.52;100863.44;5076526;27;45538;-70
2023/06/10 05:13:09;;;;;;;;;7.00;7.00;;;;;29.11;34.87;100866.13;5076362;28;46539;-70
2023/06/10 05:15:34;;;;;;;;;7.00;7.00;;;;;29.10;34.71;100867.16;5081964;27;45470;-71
2023/06/10 05:18:02;;;;;;;;;8.33;7.00;;;;;29.12;34.91;100865.09;5076702;27;45410;-70
2023/06/10 05:20:28;;;;;;;;;6.00;6.00;;;;;29.09;34.88;100861.00;5076441;27;45543;-70
2023/06/10 05:22:53;;;;;;;;;10.00;9.00;;;;;29.03;34.86;100849.31;5076054;28;46212;-70
2023/06/10 05:25:19;;;;;;;;;9.33;7.67;;;;;29.04;35.04;100852.81;5076499;28;45405;-71
2023/06/10 05:27:44;;;;;;;;;11.00;11.00;;;;;29.05;34.92;100859.78;5076469;27;45406;-70
2023/06/10 05:30:11;;;;;;;;;7.33;7.00;;;;;29.12;35.21;100871.22;5076540;28;45344;-70
2023/06/10 05:32:36;;;;;;;;;9.00;9.00;;;;;29.10;35.08;100872.50;5076449;27;46375;-70
2023/06/10 05:35:03;;;;;;;;;8.67;8.67;;;;;29.07;35.30;100861.19;5091525;27;45450;-71
2023/06/10 05:37:29;;;;;;;;;9.00;8.33;;;;;29.09;34.92;100869.03;5091901;27;45320;-70
2023/06/10 05:39:54;;;;;;;;;9.67;8.33;;;;;29.14;35.02;100879.88;5062375;28;45502;-71
2023/06/10 05:42:20;;;;;;;;;10.00;8.67;;;;;29.17;34.54;100883.97;5091836;27;46560;-70
2023/06/10 05:44:45;;;;;;;;;8.33;7.00;;;;;29.14;34.92;100877.19;5083835;27;45846;-70
2023/06/10 05:47:10;;;;;;;;;9.33;9.00;;;;;29.18;34.63;100882.91;5076317;27;45342;-71
2023/06/10 05:49:36;;;;;;;;;9.00;7.00;;;;;29.19;34.83;100889.91;5075689;27;45343;-70
2023/06/10 05:52:01;;;;;;;;;7.67;7.67;;;;;29.16;34.39;100882.31;5074110;28;46942;-70
2023/06/10 05:54:26;;;;;;;;;8.67;8.67;;;;;29.22;35.18;100888.63;5071554;28;45714;-70
2023/06/10 05:56:52;;;;;;;;;8.00;8.00;;;;;29.16;34.73;100877.78;5076022;27;45330;-70
2023/06/10 05:59:17;;;;;;;;;7.00;7.00;;;;;29.15;34.91;100873.47;5075916;27;45377;-70
2023/06/10 06:01:43;;;;;;;;;10.33;9.00;;;;;29.24;34.76;100887.34;5075462;27;47381;-70
2023/06/10 06:04:08;;;;;;;;;8.67;8.67;;;;;29.17;34.69;100887.44;5076023;28;45549;-70
2023/06/10 06:06:35;;;;;;;;;8.33;7.00;;;;;29.23;35.09;100891.06;5075706;27;45287;-70
2023/06/10 06:09:00;;;;;;;;;7.67;7.67;;;;;29.21;34.64;100887.81;5075930;27;45359;-70
2023/06/10 06:11:26;;;;;;;;;8.00;7.67;;;;;29.23;34.66;100891.06;5074207;28;46232;-71
2023/06/10 06:13:51;;;;;;;;;9.00;8.00;;;;;29.26;34.68;100900.50;5075605;28;45468;-70
2023/06/10 06:16:18;;;;;;;;;10.67;10.00;;;;;29.29;34.94;100910.78;5074507;28;45436;-70
2023/06/10 06:18:43;;;;;;;;;8.33;8.00;;;;;29.28;34.62;100911.81;5075899;27;45542;-70
2023/06/10 06:21:09;;;;;;;;;7.33;7.33;;;;;29.29;34.67;100910.78;5075162;27;45665;-70
2023/06/10 06:23:34;;;;;;;;;8.67;8.67;;;;;29.27;34.91;100905.66;5091741;27;45549;-70
2023/06/10 06:25:59;;;;;;;;;11.00;11.00;;;;;29.27;34.90;100902.97;5075380;28;45386;-70
2023/06/10 06:28:28;;;;;;;;;10.33;9.00;;;;;29.34;35.04;100910.91;5075589;27;45433;-70
2023/06/10 06:30:55;;;;;;;;;10.00;10.00;;;;;29.31;34.68;100906.00;5062372;28;46419;-70
2023/06/10 06:33:20;;;;;;;;;9.33;8.00;;;;;29.34;35.03;100910.91;5074967;27;45378;-71
2023/06/10 06:35:46;;;;;;;;;9.00;9.00;;;;;29.37;34.77;100912.31;5075616;27;45336;-70
2023/06/10 06:38:11;;;;;;;;;9.67;8.33;;;;;29.31;34.66;100899.81;5075249;28;45428;-70
2023/06/10 06:40:36;;;;;;;;;12.67;11.33;;;;;29.39;34.98;100919.09;5061395;28;45411;-70
2023/06/10 06:43:02;;;;;;;;;8.33;7.33;;;;;29.25;35.12;100893.53;5075366;27;45387;-70
2023/06/10 06:45:27;;;;;;;;;9.33;9.33;;;;;29.24;34.80;100892.72;5075374;27;45410;-70
2023/06/10 06:47:53;;;;;;;;;7.00;7.00;;;;;29.37;35.08;100912.31;5087723;27;45314;-70
2023/06/10 06:50:19;;;;;;;;;9.67;9.00;;;;;29.38;34.77;100913.97;5074865;27;45625;-71
2023/06/10 06:52:44;;;;;;;;;8.33;7.67;;;;;29.43;34.79;100915.94;5075159;28;45475;-70
2023/06/10 06:55:10;;;;;;;;;4.33;4.33;;;;;29.38;34.68;100908.59;5073824;28;45343;-71
2023/06/10 06:57:36;;;;;;;;;11.67;10.00;;;;;29.45;34.82;100921.88;5075041;27;45549;-70
2023/06/10 07:00:02;;;;;;;;;7.50;7.50;;;;;29.44;34.55;100912.19;5074789;27;46736;-70
2023/06/10 07:02:27;;;;;;;;;10.67;10.00;;;;;29.41;34.55;100918.84;5074926;27;45385;-70
2023/06/10 07:04:55;;;;;;;;;11.00;8.00;;;;;29.47;34.97;100928.66;5074627;27;45368;-70
2023/06/10 07:07:21;;;;;;;;;10.00;8.33;;;;;29.42;34.79;100919.66;5078397;27;45419;-70
2023/06/10 07:09:46;;;;;;;;;9.00;9.00;;;;;29.42;34.90;100914.31;5069921;27;48045;-70
2023/06/10 07:12:11;;;;;;;;;9.33;9.33;;;;;29.44;34.89;100925.59;5069926;28;45457;-71
2023/06/10 07:14:37;;;;;;;;;9.33;9.33;;;;;29.34;35.03;100905.56;5074698;27;45312;-70
2023/06/10 07:17:02;;;;;;;;;11.00;11.00;;;;;29.48;34.83;100930.31;5074873;27;45402;-70
2023/06/10 07:19:27;;;;;;;;;10.00;9.00;;;;;29.48;35.07;100924.13;5074584;28;45468;-70
2023/06/10 07:21:53;;;;;;;;;7.00;7.00;;;;;29.48;34.96;100927.63;5090187;27;45469;-71
2023/06/10 07:24:19;;;;;;;;;8.00;8.00;;;;;29.47;34.86;100923.28;5073282;27;45292;-70
2023/06/10 07:26:45;;;;;;;;;12.00;10.33;;;;;29.47;34.87;100923.28;5075799;27;45381;-70
2023/06/10 07:29:10;;;;;;;;;12.67;8.33;;;;;29.49;34.90;100920.38;5076242;27;47264;-71
2023/06/10 07:31:36;;;;;;;;;7.67;7.67;;;;;29.50;35.01;100914.81;5077921;28;45439;-71
2023/06/10 07:34:01;;;;;;;;;6.00;6.00;;;;;29.54;34.92;100920.50;5077887;27;45532;-70
2023/06/10 07:36:28;;;;;;;;;11.33;9.67;;;;;29.51;34.96;100915.59;5076703;27;45344;-71
2023/06/10 07:38:54;;;;;;;;;10.00;10.00;;;;;29.52;35.01;100927.97;5072293;27;46481;-71
2023/06/10 07:41:20;;;;;;;;;13.00;11.67;;;;;29.54;34.98;100922.34;5079071;27;45308;-71
2023/06/10 07:43:45;;;;;;;;;10.67;9.67;;;;;29.54;35.24;100922.34;5077117;28;45395;-71
2023/06/10 07:46:11;;;;;;;;;10.67;10.67;;;;;29.58;34.90;100939.63;5073683;27;45407;-72
2023/06/10 07:48:36;;;;;;;;;9.33;9.33;;;;;29.58;35.20;100931.59;5076456;27;46087;-70
2023/06/10 07:51:01;;;;;;;;;11.33;9.67;;;;;29.60;35.29;100935.69;5089181;27;45414;-69
2023/06/10 07:53:27;;;;;;;;;11.50;10.75;;;;;29.66;35.76;100933.13;5092007;27;45523;-69
2023/06/10 07:55:52;;;;;;;;;10.33;10.33;;;;;29.68;35.82;100931.03;5075446;28;45599;-69
2023/06/10 07:58:17;;;;;;;;;11.33;10.00;;;;;29.66;35.81;100931.25;5068139;27;45365;-69
2023/06/10 08:00:43;;;;;;;;;9.33;9.33;;;;;29.76;35.59;100936.06;5076563;27;45456;-70
2023/06/10 08:03:08;;;;;;;;;9.00;9.00;;;;;29.81;35.99;100940.75;5077527;27;45457;-69
2023/06/10 08:05:33;;;;;;;;;11.33;9.00;;;;;29.87;35.99;100942.50;5077668;28;45356;-70
2023/06/10 08:07:59;;;;;;;;;11.00;10.67;;;;;29.88;35.70;100941.44;5076882;27;46215;-70
2023/06/10 08:10:24;;;;;;;;;12.00;10.67;;;;;29.92;36.07;100942.63;5077205;27;45398;-70
2023/06/10 08:12:49;;;;;;;;;11.33;10.67;;;;;29.93;35.90;100944.25;5065879;27;45273;-69
2023/06/10 08:15:15;;;;;;;;;10.00;9.00;;;;;29.98;35.73;100948.13;5062113;27;45515;-69
2023/06/10 08:17:40;;;;;;;;;11.67;9.33;;;;;30.04;36.01;100945.31;5075517;28;48479;-70
2023/06/10 08:20:06;;;;;;;;;10.67;9.67;;;;;30.12;35.75;100948.69;5077297;28;45501;-70
2023/06/10 08:22:31;;;;;;;;;10.00;9.33;;;;;30.11;35.79;100947.06;5077397;27;45463;-70
2023/06/10 08:24:57;;;;;;;;;11.00;8.33;;;;;30.20;35.63;100952.88;5077225;28;45385;-71
2023/06/10 08:27:22;;;;;;;;;10.67;10.00;;;;;30.27;35.57;100950.88;5076570;27;45481;-71
2023/06/10 08:29:47;;;;;;;;;13.67;11.67;;;;;30.27;35.36;100942.84;5076949;28;45315;-70
2023/06/10 08:32:13;;;;;;;;;12.67;10.00;;;;;30.27;36.37;100938.28;5079465;27;45496;-73
2023/06/10 08:34:39;;;;;;;;;10.00;10.00;;;;;30.39;36.05;100954.41;5086912;27;45279;-71
2023/06/10 08:37:05;;;;;;;;;12.00;7.00;;;;;30.42;35.83;100947.75;5076976;27;45549;-71
2023/06/10 08:39:32;;;;;;;;;9.00;9.00;;;;;30.45;36.33;100943.78;5065814;28;45309;-71
2023/06/10 08:42:16;;;;;;;;;10.33;9.67;;;;;30.50;36.04;100946.56;5074777;27;45485;-71
2023/06/10 08:44:42;;;;;;;;;8.67;7.33;;;;;30.49;35.90;100959.19;5070303;28;45426;-70
2023/06/10 08:47:14;;;;;;;;;10.67;9.67;;;;;30.55;35.97;100952.03;5076951;27;46055;-70
2023/06/10 08:49:43;;;;;;;;;9.67;9.67;;;;;30.57;35.67;100943.78;5076406;27;45443;-71
2023/06/10 08:52:15;;;;;;;;;12.00;10.00;;;;;30.57;35.90;100947.28;5076955;27;45443;-71
2023/06/10 08:54:43;;;;;;;;;10.33;9.00;;;;;30.62;35.86;100949.25;5076839;27;45282;-71
2023/06/10 08:57:09;;;;;;;;;9.67;9.33;;;;;30.61;35.85;100944.91;5076338;28;45789;-71
2023/06/10 08:59:34;;;;;;;;;9.00;7.67;;;;;30.66;35.24;100952.25;5075997;27;45442;-70
2023/06/10 09:02:02;;;;;;;;;12.33;11.00;;;;;30.66;35.77;100949.56;5077249;28;45451;-70
2023/06/10 09:04:27;;;;;;;;;8.33;8.33;;;;;30.70;35.57;100954.25;5076700;27;45378;-71
2023/06/10 09:06:53;;;;;;;;;11.67;10.00;;;;;30.72;35.81;100956.69;5076748;28;45513;-70
2023/06/10 09:09:20;;;;;;;;;9.00;9.00;;;;;30.60;35.60;100938.72;5076521;27;45970;-70
2023/06/10 09:11:45;;;;;;;;;10.67;9.00;;;;;30.74;35.31;100960.78;5076715;28;45318;-70
2023/06/10 09:14:12;;;;;;;;;10.67;10.33;;;;;30.71;35.30;100953.19;5062395;27;45229;-71
2023/06/10 09:16:38;;;;;;;;;8.00;7.33;;;;;30.72;35.71;100945.94;5076403;27;45669;-71
2023/06/10 09:19:07;;;;;;;;;10.33;9.67;;;;;30.74;35.68;100959.94;5076359;28;45304;-71
2023/06/10 09:21:33;;;;;;;;;9.67;9.67;;;;;30.73;35.47;100953.75;5076061;27;45215;-71
2023/06/10 09:23:59;;;;;;;;;10.00;10.00;;;;;30.75;35.48;100956.22;5076470;27;45507;-71
2023/06/10 09:26:29;;;;;;;;;12.00;11.00;;;;;30.79;35.60;100962.75;5076340;27;46233;-70
2023/06/10 09:29:11;;;;;;;;;10.00;8.33;;;;;30.71;35.83;100942.44;5075967;27;45449;-71
2023/06/10 09:31:38;;;;;;;;;10.00;8.33;;;;;30.76;35.40;100955.16;5076649;28;45426;-71
2023/06/10 09:34:15;;;;;;;;;5.33;5.33;;;;;30.80;35.25;100958.19;5076622;27;45450;-70
2023/06/10 09:36:41;;;;;;;;;10.33;10.00;;;;;30.80;35.31;100963.56;5076149;28;45439;-71
2023/06/10 09:39:17;;;;;;;;;8.67;8.67;;;;;30.77;35.58;100955.97;5068968;28;45323;-71
2023/06/10 09:41:43;;;;;;;;;9.67;9.33;;;;;30.78;35.34;100953.06;5071671;27;46575;-71
2023/06/10 09:44:17;;;;;;;;;8.67;7.67;;;;;30.80;35.35;100967.06;5075907;27;45640;-71
2023/06/10 09:46:46;;;;;;;;;8.00;8.00;;;;;30.80;35.58;100967.06;5076196;28;45346;-71
2023/06/10 09:49:11;;;;;;;;;10.67;8.67;;;;;30.79;35.36;100957.38;5075935;27;45528;-71
2023/06/10 09:51:37;;;;;;;;;9.67;8.00;;;;;30.76;35.79;100957.84;5075778;27;45358;-70
2023/06/10 09:54:04;;;;;;;;;9.67;9.00;;;;;30.80;35.56;100969.75;5076432;27;45404;-71
2023/06/10 09:56:36;;;;;;;;;9.67;8.67;;;;;30.80;35.18;100963.56;5075902;27;46509;-71
2023/06/10 09:59:05;;;;;;;;;8.33;8.00;;;;;30.74;35.53;100966.13;5075330;28;45342;-71
2023/06/10 10:01:33;;;;;;;;;10.00;7.00;;;;;30.82;35.58;100973.00;5075643;27;45506;-71
2023/06/10 10:03:58;;;;;;;;;7.67;7.67;;;;;30.74;35.42;100958.09;5076041;28;45252;-71
2023/06/10 10:06:24;;;;;;;;;9.00;9.00;;;;;30.74;35.33;100960.78;5075793;27;46424;-71
2023/06/10 10:08:50;;;;;;;;;8.67;8.67;;;;;30.80;35.50;100967.06;5076206;28;45276;-71
2023/06/10 10:11:22;;;;;;;;;5.33;5.00;;;;;30.72;35.54;100967.44;5075288;28;45369;-71
2023/06/10 10:13:49;;;;;;;;;10.00;9.00;;;;;30.80;35.26;100977.00;5075950;28;45231;-71
2023/06/10 10:16:18;;;;;;;;;9.67;7.67;;;;;30.78;35.30;100977.25;5075049;28;47398;-70
2023/06/10 10:18:51;;;;;;;;;10.33;9.33;;;;;30.79;35.53;100967.28;5074270;27;45496;-71
2023/06/10 10:21:23;;;;;;;;;8.67;8.67;;;;;30.74;35.68;100971.50;5064171;28;45489;-71
2023/06/10 10:24:01;;;;;;;;;8.67;7.33;;;;;30.77;35.33;100975.59;5075351;27;45428;-70
2023/06/10 10:26:27;;;;;;;;;7.33;7.33;;;;;30.77;35.44;100972.09;5089897;27;48526;-71
2023/06/10 10:29:15;;;;;;;;;8.67;8.67;;;;;30.72;35.71;100956.69;5090842;27;45319;-71
2023/06/10 10:31:43;;;;;;;;;8.33;8.33;;;;;30.73;35.34;100961.81;5071173;27;45509;-71
2023/06/10 10:34:15;;;;;;;;;8.00;8.00;;;;;30.72;35.39;100960.19;5075710;28;45325;-71
2023/06/10 10:36:41;;;;;;;;;10.33;7.67;;;;;30.71;35.35;100965.78;5076129;27;45547;-71
2023/06/10 10:39:07;;;;;;;;;10.67;8.33;;;;;30.72;35.74;100962.88;5067546;27;45409;-71
2023/06/10 10:41:33;;;;;;;;;9.00;7.67;;;;;30.73;35.14;100975.25;5068805;28;45605;-71
2023/06/10 10:44:00;;;;;;;;;7.00;7.00;;;;;30.68;35.49;100969.75;5075492;28;45295;-70
2023/06/10 10:46:30;;;;;;;;;11.33;9.33;;;;;30.70;35.37;100967.69;5074882;28;45581;-71
2023/06/10 10:48:56;;;;;;;;;6.00;5.00;;;;;30.72;35.23;100967.44;5075050;27;45518;-70
2023/06/10 10:51:24;;;;;;;;;7.00;7.00;;;;;30.72;35.57;100962.06;5075240;27;45465;-70
2023/06/10 10:54:15;;;;;;;;;7.67;7.00;;;;;30.72;35.66;100970.94;5075161;28;45458;-70
2023/06/10 10:57:16;;;;;;;;;9.00;7.67;;;;;30.73;35.56;100971.75;5074521;28;46612;-69
2023/06/10 10:59:59;;;;;;;;;7.00;7.00;;;;;30.68;35.69;100952.88;5074931;28;45320;-70
2023/06/10 11:02:35;;;;;;;;;7.33;7.33;;;;;30.55;35.48;100943.19;5076615;27;45355;-70
2023/06/10 11:05:01;;;;;;;;;8.67;7.67;;;;;30.69;35.57;100957.97;5068136;27;45283;-71
2023/06/10 11:07:29;;;;;;;;;8.00;8.00;;;;;30.62;35.71;100949.25;5078652;28;46275;-70
2023/06/10 11:10:11;;;;;;;;;9.00;7.67;;;;;30.66;35.36;100953.06;5065571;28;45407;-70
2023/06/10 11:12:57;;;;;;;;;7.00;6.67;;;;;30.63;35.64;100953.53;5078278;27;45346;-69
2023/06/10 11:15:23;;;;;;;;;10.00;8.67;;;;;30.65;35.64;100956.84;5078614;27;45589;-70
2023/06/10 11:18:10;;;;;;;;;8.33;6.67;;;;;30.58;35.49;100942.69;5078291;28;45416;-70